createdAt,value
2018-07-12T00:02:36.748Z,19.30
2018-07-12T00:07:39.750Z,19.40
2018-07-12T00:12:42.754Z,19.30
2018-07-12T00:17:45.768Z,19.40
2018-07-12T00:22:48.766Z,19.40
2018-07-12T00:27:51.770Z,19.50
2018-07-12T00:32:54.763Z,19.50
2018-07-12T00:37:57.766Z,19.50
2018-07-12T00:43:00.814Z,19.60
2018-07-12T00:48:03.827Z,19.60
2018-07-12T00:53:06.831Z,19.60
2018-07-12T00:58:09.831Z,19.50
2018-07-12T01:03:12.835Z,19.60
2018-07-12T01:08:15.835Z,19.60
2018-07-12T01:13:18.835Z,19.60
2018-07-12T01:18:21.837Z,19.40
2018-07-12T01:23:24.845Z,19.40
2018-07-12T01:28:27.855Z,19.40
2018-07-12T01:38:33.987Z,19.50
2018-07-12T01:43:37.318Z,19.50
2018-07-12T01:48:40.372Z,19.40
2018-07-12T01:53:43.373Z,19.40
2018-07-12T02:03:49.503Z,19.40
2018-07-12T02:08:52.497Z,19.30
2018-07-12T02:13:55.515Z,19.20
2018-07-12T02:18:58.524Z,19.10
2018-07-12T02:24:01.519Z,18.90
2018-07-12T02:29:04.535Z,18.90
2018-07-12T02:34:07.536Z,18.80
2018-07-12T02:39:10.540Z,18.70
2018-07-12T02:44:13.833Z,18.60
2018-07-12T02:49:18.099Z,18.60
2018-07-12T02:54:21.107Z,18.60
2018-07-12T02:59:24.313Z,18.60
2018-07-12T03:04:27.304Z,18.60
2018-07-12T03:09:30.303Z,18.60
2018-07-12T03:14:33.447Z,18.50
2018-07-12T03:24:39.597Z,18.40
2018-07-12T03:29:42.591Z,18.40
2018-07-12T03:34:45.616Z,18.40
2018-07-12T03:39:48.612Z,18.40
2018-07-12T03:44:52.028Z,18.40
2018-07-12T03:49:55.031Z,18.30
2018-07-12T03:54:58.072Z,18.20
2018-07-12T04:00:01.076Z,18.10
2018-07-12T04:05:04.079Z,18.10
2018-07-12T04:10:07.075Z,18.10
2018-07-12T04:15:10.067Z,18.20
2018-07-12T04:20:13.072Z,18.20
2018-07-12T04:25:16.079Z,18.30
2018-07-12T04:30:19.097Z,18.40
2018-07-12T04:35:22.108Z,18.50
2018-07-12T04:45:28.417Z,18.70
2018-07-12T04:55:34.551Z,18.80
2018-07-12T05:00:37.564Z,18.90
2018-07-12T05:05:40.577Z,19.10
2018-07-12T05:10:43.588Z,19.40
2018-07-12T05:15:46.619Z,19.50
2018-07-12T05:20:49.654Z,19.40
2018-07-12T05:25:52.647Z,19.40
2018-07-12T05:30:55.684Z,19.30
2018-07-12T05:35:59.713Z,19.50
2018-07-12T05:41:03.747Z,19.70
2018-07-12T05:46:07.819Z,19.90
2018-07-12T05:51:11.839Z,20.10
2018-07-12T05:56:15.847Z,20.10
2018-07-12T06:01:31.011Z,20.40
2018-07-12T06:06:35.015Z,20.80
2018-07-12T06:11:39.040Z,20.90
2018-07-12T06:16:43.039Z,21.00
2018-07-12T06:21:47.035Z,21.30
2018-07-12T06:26:51.085Z,21.50
2018-07-12T06:31:55.112Z,21.70
2018-07-12T06:36:59.098Z,22.00
2018-07-12T06:42:03.120Z,22.20
2018-07-12T06:47:07.160Z,22.70
2018-07-12T06:52:11.156Z,23.10
2018-07-12T06:57:15.223Z,23.30
2018-07-12T07:02:19.222Z,23.70
2018-07-12T07:07:23.219Z,24.50
2018-07-12T07:12:27.261Z,25.30
2018-07-12T07:17:31.262Z,25.60
2018-07-12T07:22:35.268Z,25.50
2018-07-12T07:27:39.308Z,24.90
2018-07-12T07:32:43.365Z,25.30
2018-07-12T07:37:47.374Z,25.70
2018-07-12T07:42:51.461Z,25.40
2018-07-12T07:47:55.464Z,25.60
2018-07-12T07:52:59.585Z,26.30
2018-07-12T07:58:03.612Z,27.30
2018-07-12T08:03:07.940Z,26.80
2018-07-12T08:08:11.953Z,27.50
2018-07-12T08:13:15.987Z,26.50
2018-07-12T08:18:20.009Z,26.20
2018-07-12T08:23:24.074Z,27.10
2018-07-12T08:28:29.411Z,26.90
2018-07-12T08:33:33.440Z,27.90
2018-07-12T08:38:37.451Z,27.20
2018-07-12T08:43:41.475Z,28.80
2018-07-12T08:53:49.181Z,28.10
2018-07-12T08:58:53.187Z,28.60
2018-07-12T09:03:57.376Z,29.10
2018-07-12T09:09:01.385Z,29.10
2018-07-12T09:14:05.403Z,29.60
2018-07-12T09:19:09.403Z,29.90
2018-07-12T09:24:14.220Z,29.40
2018-07-12T09:29:26.213Z,29.50
2018-07-12T09:34:30.232Z,28.70
2018-07-12T09:39:34.988Z,28.50
2018-07-12T09:44:39.008Z,29.30
2018-07-12T09:49:43.088Z,29.00
2018-07-12T09:54:47.096Z,29.00
2018-07-12T10:04:54.755Z,29.40
2018-07-12T10:09:59.032Z,30.30
2018-07-12T10:15:08.396Z,30.70
2018-07-12T10:20:12.414Z,29.90
2018-07-12T10:25:16.436Z,30.10
2018-07-12T10:30:20.452Z,31.10
2018-07-12T10:35:24.480Z,31.20
2018-07-12T10:40:28.504Z,31.70
2018-07-12T10:45:32.538Z,33.00
2018-07-12T10:50:36.879Z,31.90
2018-07-12T10:55:40.889Z,32.30
2018-07-12T11:00:44.915Z,31.90
2018-07-12T11:05:48.946Z,32.80
2018-07-12T11:10:52.951Z,32.80
2018-07-12T11:15:56.964Z,33.60
2018-07-12T11:21:00.983Z,33.90
2018-07-12T11:31:08.640Z,34.30
2018-07-12T11:36:12.699Z,34.20
2018-07-12T11:41:16.695Z,35.30
2018-07-12T11:46:21.620Z,34.80
2018-07-12T11:51:26.446Z,34.20
2018-07-12T11:56:30.516Z,34.50
2018-07-12T12:01:34.520Z,35.50
2018-07-12T12:06:38.519Z,36.20
2018-07-12T12:11:42.519Z,36.20
2018-07-12T12:16:47.078Z,37.20
2018-07-12T12:21:51.079Z,36.20
2018-07-12T12:26:55.093Z,36.60
2018-07-12T12:31:59.111Z,36.00
2018-07-12T12:37:03.141Z,35.90
2018-07-12T12:42:07.165Z,37.00
2018-07-12T12:47:11.160Z,38.10
2018-07-12T12:52:15.550Z,35.60
2018-07-12T12:57:19.987Z,36.50
2018-07-12T13:02:24.016Z,35.00
2018-07-12T13:07:28.018Z,35.50
2018-07-12T13:12:32.067Z,34.10
2018-07-12T13:17:36.063Z,35.40
2018-07-12T13:22:40.062Z,34.60
2018-07-12T13:27:44.183Z,33.80
2018-07-12T13:33:51.381Z,32.90
2018-07-12T13:38:55.382Z,34.60
2018-07-12T13:44:10.837Z,36.30
2018-07-12T13:49:15.049Z,35.90
2018-07-12T13:54:19.519Z,37.40
2018-07-12T13:59:24.480Z,38.10
2018-07-12T14:04:28.504Z,38.00
2018-07-12T14:09:32.514Z,37.30
2018-07-12T14:14:36.509Z,35.30
2018-07-12T14:19:40.523Z,34.50
2018-07-12T14:24:44.539Z,34.20
2018-07-12T14:29:48.557Z,34.00
2018-07-12T14:34:52.575Z,34.80
2018-07-12T14:39:56.601Z,35.10
2018-07-12T14:45:00.667Z,36.70
2018-07-12T14:50:04.679Z,36.60
2018-07-12T14:55:09.092Z,35.60
2018-07-12T15:00:13.081Z,36.40
2018-07-12T15:05:17.096Z,36.80
2018-07-12T15:10:21.165Z,36.80
2018-07-12T15:15:25.174Z,36.20
2018-07-12T15:20:29.309Z,36.00
2018-07-12T15:25:33.323Z,36.70
2018-07-12T15:30:37.351Z,37.20
2018-07-12T15:35:41.429Z,36.70
2018-07-12T15:40:45.424Z,36.40
2018-07-12T15:50:53.075Z,34.60
2018-07-12T15:55:57.119Z,34.10
2018-07-12T16:01:01.147Z,33.40
2018-07-12T16:06:05.139Z,32.70
2018-07-12T16:11:09.155Z,32.00
2018-07-12T16:16:13.176Z,31.80
2018-07-12T16:21:17.201Z,32.60
2018-07-12T16:26:21.233Z,32.20
2018-07-12T16:31:25.263Z,31.70
2018-07-12T16:36:29.272Z,31.90
2018-07-12T16:41:33.270Z,32.60
2018-07-12T16:46:37.322Z,31.60
2018-07-12T16:51:41.330Z,30.70
2018-07-12T16:56:45.515Z,29.90
2018-07-12T17:01:49.521Z,29.40
2018-07-12T17:06:53.524Z,28.70
2018-07-12T17:11:57.534Z,28.50
2018-07-12T17:17:01.514Z,28.10
2018-07-12T17:22:05.523Z,27.70
2018-07-12T17:27:09.876Z,27.40
2018-07-12T17:32:13.879Z,27.10
2018-07-12T17:37:17.908Z,26.90
2018-07-12T17:47:25.644Z,26.50
2018-07-12T17:57:33.343Z,26.20
2018-07-12T18:02:37.348Z,26.30
2018-07-12T18:12:45.040Z,26.20
2018-07-12T18:17:49.063Z,26.10
2018-07-12T18:22:53.068Z,25.90
2018-07-12T18:27:57.107Z,25.70
2018-07-12T18:33:01.124Z,25.40
2018-07-12T18:38:05.168Z,25.30
2018-07-12T18:43:09.204Z,25.20
2018-07-12T18:48:13.278Z,25.00
2018-07-12T18:58:21.322Z,24.90
2018-07-12T19:08:28.999Z,24.80
2018-07-12T19:13:33.032Z,24.80
2018-07-12T19:18:37.068Z,24.80
2018-07-12T19:23:41.123Z,24.70
2018-07-12T19:28:45.144Z,24.50
2018-07-12T19:33:49.191Z,23.90
2018-07-12T19:43:56.924Z,24.20
2018-07-12T19:49:01.028Z,24.00
2018-07-12T19:54:05.056Z,23.50
2018-07-12T20:04:12.815Z,23.70
2018-07-12T20:09:16.943Z,23.80
2018-07-12T20:14:20.984Z,23.90
2018-07-12T20:19:25.011Z,24.00
2018-07-12T20:24:28.991Z,24.00
2018-07-12T20:29:33.004Z,23.90
2018-07-12T20:34:37.013Z,23.90
2018-07-12T20:39:41.055Z,23.80
2018-07-12T20:44:45.069Z,23.70
2018-07-12T20:49:49.074Z,23.50
2018-07-12T20:54:53.156Z,23.50
2018-07-12T20:59:57.278Z,23.40
2018-07-12T21:05:01.262Z,23.40
2018-07-12T21:10:05.381Z,23.30
2018-07-12T21:15:09.375Z,23.30
2018-07-12T21:20:13.388Z,23.20
2018-07-12T21:25:17.417Z,23.10
2018-07-12T21:30:21.427Z,23.00
2018-07-12T21:35:25.447Z,23.00
2018-07-12T21:40:29.461Z,22.90
2018-07-12T21:45:33.476Z,22.80
2018-07-12T21:50:37.487Z,22.80
2018-07-12T21:55:41.500Z,22.80
2018-07-12T22:00:46.477Z,22.60
2018-07-12T22:05:50.504Z,22.50
2018-07-12T22:10:56.756Z,22.50
2018-07-12T22:16:00.760Z,22.30
2018-07-12T22:21:04.830Z,22.30
2018-07-12T22:26:08.817Z,22.30
2018-07-12T22:31:12.836Z,22.10
2018-07-12T22:36:16.839Z,22.00
2018-07-12T22:41:20.834Z,21.90
2018-07-12T22:46:24.834Z,21.70
2018-07-12T22:51:28.839Z,21.60
2018-07-12T22:56:32.875Z,21.60
2018-07-12T23:01:37.171Z,21.50
2018-07-12T23:06:42.137Z,21.50
2018-07-12T23:11:46.173Z,21.40
2018-07-12T23:16:50.219Z,21.40
2018-07-12T23:21:54.223Z,21.30
2018-07-12T23:26:58.292Z,21.30
2018-07-12T23:32:02.254Z,21.30
2018-07-12T23:37:06.276Z,21.30
2018-07-12T23:42:10.692Z,21.20
2018-07-12T23:47:14.732Z,21.20
2018-07-12T23:52:18.774Z,21.10
2018-07-12T23:57:22.812Z,20.90
